sensor_id;sensor_type;location;lat;lon;timestamp;P1;durP1;ratioP1;P2;durP2;ratioP2
8413;SDS011;4244;48.684;9.028;2023-11-21T00:01:04;5.17;;;2.77;;
8413;SDS011;4244;48.684;9.028;2023-11-21T00:03:30;3.87;;;2.37;;
8413;SDS011;4244;48.684;9.028;2023-11-21T00:05:56;5.77;;;2.33;;
8413;SDS011;4244;48.684;9.028;2023-11-21T00:08:22;7.33;;;3.20;;
8413;SDS011;4244;48.684;9.028;2023-11-21T00:10:47;5.20;;;2.80;;
8413;SDS011;4244;48.684;9.028;2023-11-21T00:13:13;8.83;;;2.90;;
8413;SDS011;4244;48.684;9.028;2023-11-21T00:15:40;5.60;;;2.60;;
8413;SDS011;4244;48.684;9.028;2023-11-21T00:18:07;3.63;;;2.60;;
8413;SDS011;4244;48.684;9.028;2023-11-21T00:20:32;5.90;;;2.70;;
8413;SDS011;4244;48.684;9.028;2023-11-21T00:22:58;6.23;;;2.70;;
8413;SDS011;4244;48.684;9.028;2023-11-21T00:25:24;6.40;;;2.70;;
8413;SDS011;4244;48.684;9.028;2023-11-21T00:27:51;6.57;;;3.30;;
8413;SDS011;4244;48.684;9.028;2023-11-21T00:30:17;5.57;;;2.87;;
8413;SDS011;4244;48.684;9.028;2023-11-21T00:32:42;6.30;;;2.80;;
8413;SDS011;4244;48.684;9.028;2023-11-21T00:35:08;5.97;;;3.10;;
8413;SDS011;4244;48.684;9.028;2023-11-21T00:37:33;5.47;;;2.70;;
8413;SDS011;4244;48.684;9.028;2023-11-21T00:39:59;6.40;;;3.10;;
8413;SDS011;4244;48.684;9.028;2023-11-21T00:42:25;4.13;;;2.13;;
8413;SDS011;4244;48.684;9.028;2023-11-21T00:44:50;7.00;;;2.60;;
8413;SDS011;4244;48.684;9.028;2023-11-21T00:47:16;5.23;;;3.00;;
8413;SDS011;4244;48.684;9.028;2023-11-21T00:49:42;5.80;;;3.50;;
8413;SDS011;4244;48.684;9.028;2023-11-21T00:52:08;3.70;;;2.40;;
8413;SDS011;4244;48.684;9.028;2023-11-21T00:54:34;5.60;;;2.70;;
8413;SDS011;4244;48.684;9.028;2023-11-21T00:56:59;6.10;;;2.97;;
8413;SDS011;4244;48.684;9.028;2023-11-21T00:59:25;3.67;;;2.50;;
8413;SDS011;4244;48.684;9.028;2023-11-21T01:01:51;5.70;;;2.43;;
8413;SDS011;4244;48.684;9.028;2023-11-21T01:04:16;5.20;;;2.40;;
8413;SDS011;4244;48.684;9.028;2023-11-21T01:06:42;5.53;;;2.53;;
8413;SDS011;4244;48.684;9.028;2023-11-21T01:09:07;4.70;;;2.83;;
8413;SDS011;4244;48.684;9.028;2023-11-21T01:11:34;4.67;;;2.03;;
8413;SDS011;4244;48.684;9.028;2023-11-21T01:14:02;2.63;;;2.07;;
8413;SDS011;4244;48.684;9.028;2023-11-21T01:16:31;3.83;;;2.63;;
8413;SDS011;4244;48.684;9.028;2023-11-21T01:19:00;4.67;;;2.17;;
8413;SDS011;4244;48.684;9.028;2023-11-21T01:21:26;5.23;;;2.23;;
8413;SDS011;4244;48.684;9.028;2023-11-21T01:23:53;9.57;;;3.07;;
8413;SDS011;4244;48.684;9.028;2023-11-21T01:26:20;4.90;;;2.37;;
8413;SDS011;4244;48.684;9.028;2023-11-21T01:28:45;7.07;;;2.53;;
8413;SDS011;4244;48.684;9.028;2023-11-21T01:31:13;3.07;;;1.53;;
8413;SDS011;4244;48.684;9.028;2023-11-21T01:33:42;5.50;;;2.37;;
8413;SDS011;4244;48.684;9.028;2023-11-21T01:36:09;3.40;;;1.83;;
8413;SDS011;4244;48.684;9.028;2023-11-21T01:38:34;3.70;;;2.03;;
8413;SDS011;4244;48.684;9.028;2023-11-21T01:41:00;6.00;;;2.00;;
8413;SDS011;4244;48.684;9.028;2023-11-21T01:43:26;3.27;;;2.00;;
8413;SDS011;4244;48.684;9.028;2023-11-21T01:45:53;4.60;;;1.80;;
8413;SDS011;4244;48.684;9.028;2023-11-21T01:48:22;2.87;;;1.50;;
8413;SDS011;4244;48.684;9.028;2023-11-21T01:50:48;6.60;;;2.40;;
8413;SDS011;4244;48.684;9.028;2023-11-21T01:53:13;3.43;;;1.90;;
8413;SDS011;4244;48.684;9.028;2023-11-21T01:55:40;8.33;;;1.70;;
8413;SDS011;4244;48.684;9.028;2023-11-21T01:58:07;4.80;;;1.90;;
8413;SDS011;4244;48.684;9.028;2023-11-21T02:00:32;3.97;;;2.03;;
8413;SDS011;4244;48.684;9.028;2023-11-21T02:02:58;3.13;;;2.10;;
8413;SDS011;4244;48.684;9.028;2023-11-21T02:05:24;2.70;;;1.53;;
8413;SDS011;4244;48.684;9.028;2023-11-21T02:07:51;3.27;;;1.80;;
8413;SDS011;4244;48.684;9.028;2023-11-21T02:10:17;5.23;;;1.70;;
8413;SDS011;4244;48.684;9.028;2023-11-21T02:12:47;3.37;;;1.70;;
8413;SDS011;4244;48.684;9.028;2023-11-21T02:15:15;3.43;;;1.53;;
8413;SDS011;4244;48.684;9.028;2023-11-21T02:17:45;2.30;;;1.30;;
8413;SDS011;4244;48.684;9.028;2023-11-21T02:20:16;2.33;;;1.40;;
8413;SDS011;4244;48.684;9.028;2023-11-21T02:22:43;3.83;;;1.60;;
8413;SDS011;4244;48.684;9.028;2023-11-21T02:25:13;2.40;;;1.33;;
8413;SDS011;4244;48.684;9.028;2023-11-21T02:27:39;3.83;;;1.50;;
8413;SDS011;4244;48.684;9.028;2023-11-21T02:30:05;2.13;;;0.90;;
8413;SDS011;4244;48.684;9.028;2023-11-21T02:32:32;3.10;;;1.30;;
8413;SDS011;4244;48.684;9.028;2023-11-21T02:34:59;2.63;;;1.07;;
8413;SDS011;4244;48.684;9.028;2023-11-21T02:37:27;4.53;;;1.37;;
8413;SDS011;4244;48.684;9.028;2023-11-21T02:39:53;2.40;;;1.13;;
8413;SDS011;4244;48.684;9.028;2023-11-21T02:42:19;6.43;;;2.03;;
8413;SDS011;4244;48.684;9.028;2023-11-21T02:44:44;4.60;;;1.17;;
8413;SDS011;4244;48.684;9.028;2023-11-21T02:47:10;3.00;;;1.23;;
8413;SDS011;4244;48.684;9.028;2023-11-21T02:49:35;1.43;;;1.07;;
8413;SDS011;4244;48.684;9.028;2023-11-21T02:52:01;2.60;;;0.90;;
8413;SDS011;4244;48.684;9.028;2023-11-21T02:54:27;2.57;;;1.43;;
8413;SDS011;4244;48.684;9.028;2023-11-21T02:56:52;2.17;;;1.03;;
8413;SDS011;4244;48.684;9.028;2023-11-21T02:59:18;4.03;;;1.17;;
8413;SDS011;4244;48.684;9.028;2023-11-21T03:01:44;1.37;;;0.90;;
8413;SDS011;4244;48.684;9.028;2023-11-21T03:04:11;2.33;;;1.13;;
8413;SDS011;4244;48.684;9.028;2023-11-21T03:06:44;2.50;;;1.30;;
8413;SDS011;4244;48.684;9.028;2023-11-21T03:09:10;2.87;;;1.10;;
8413;SDS011;4244;48.684;9.028;2023-11-21T03:11:37;3.60;;;1.40;;
8413;SDS011;4244;48.684;9.028;2023-11-21T03:14:03;2.03;;;0.90;;
8413;SDS011;4244;48.684;9.028;2023-11-21T03:16:28;3.67;;;1.20;;
8413;SDS011;4244;48.684;9.028;2023-11-21T03:18:54;1.97;;;1.10;;
8413;SDS011;4244;48.684;9.028;2023-11-21T03:21:20;2.17;;;1.27;;
8413;SDS011;4244;48.684;9.028;2023-11-21T03:23:45;2.07;;;1.20;;
8413;SDS011;4244;48.684;9.028;2023-11-21T03:26:13;1.67;;;1.00;;
8413;SDS011;4244;48.684;9.028;2023-11-21T03:28:39;1.83;;;1.00;;
8413;SDS011;4244;48.684;9.028;2023-11-21T03:31:05;4.40;;;1.30;;
8413;SDS011;4244;48.684;9.028;2023-11-21T03:33:31;3.30;;;1.27;;
8413;SDS011;4244;48.684;9.028;2023-11-21T03:35:57;2.47;;;1.30;;
8413;SDS011;4244;48.684;9.028;2023-11-21T03:38:23;1.30;;;0.90;;
8413;SDS011;4244;48.684;9.028;2023-11-21T03:40:48;1.57;;;0.90;;
8413;SDS011;4244;48.684;9.028;2023-11-21T03:43:15;4.07;;;1.40;;
8413;SDS011;4244;48.684;9.028;2023-11-21T03:45:41;1.60;;;0.70;;
8413;SDS011;4244;48.684;9.028;2023-11-21T03:48:07;3.93;;;1.03;;
8413;SDS011;4244;48.684;9.028;2023-11-21T03:50:33;2.53;;;1.17;;
8413;SDS011;4244;48.684;9.028;2023-11-21T03:52:59;2.90;;;0.90;;
8413;SDS011;4244;48.684;9.028;2023-11-21T03:55:25;2.13;;;1.00;;
8413;SDS011;4244;48.684;9.028;2023-11-21T03:57:51;3.93;;;1.07;;
8413;SDS011;4244;48.684;9.028;2023-11-21T04:00:17;2.40;;;0.97;;
8413;SDS011;4244;48.684;9.028;2023-11-21T04:02:45;2.63;;;1.17;;
8413;SDS011;4244;48.684;9.028;2023-11-21T04:05:11;1.77;;;1.20;;
8413;SDS011;4244;48.684;9.028;2023-11-21T04:07:37;2.30;;;1.13;;
8413;SDS011;4244;48.684;9.028;2023-11-21T04:10:03;3.03;;;0.97;;
8413;SDS011;4244;48.684;9.028;2023-11-21T04:12:32;3.47;;;0.80;;
8413;SDS011;4244;48.684;9.028;2023-11-21T04:14:57;3.37;;;1.07;;
8413;SDS011;4244;48.684;9.028;2023-11-21T04:17:23;1.73;;;0.87;;
8413;SDS011;4244;48.684;9.028;2023-11-21T04:19:49;1.17;;;0.77;;
8413;SDS011;4244;48.684;9.028;2023-11-21T04:22:14;1.50;;;1.13;;
8413;SDS011;4244;48.684;9.028;2023-11-21T04:24:40;2.23;;;1.20;;
8413;SDS011;4244;48.684;9.028;2023-11-21T04:27:05;2.03;;;0.90;;
8413;SDS011;4244;48.684;9.028;2023-11-21T04:29:31;1.37;;;0.70;;
8413;SDS011;4244;48.684;9.028;2023-11-21T04:31:57;1.50;;;0.83;;
8413;SDS011;4244;48.684;9.028;2023-11-21T04:34:22;1.13;;;0.80;;
8413;SDS011;4244;48.684;9.028;2023-11-21T04:36:49;2.53;;;1.23;;
8413;SDS011;4244;48.684;9.028;2023-11-21T04:39:14;3.67;;;1.00;;
8413;SDS011;4244;48.684;9.028;2023-11-21T04:41:40;1.60;;;1.03;;
8413;SDS011;4244;48.684;9.028;2023-11-21T04:44:06;1.20;;;1.00;;
8413;SDS011;4244;48.684;9.028;2023-11-21T04:46:31;1.90;;;1.00;;
8413;SDS011;4244;48.684;9.028;2023-11-21T04:48:57;0.90;;;0.67;;
8413;SDS011;4244;48.684;9.028;2023-11-21T04:51:24;1.10;;;0.83;;
8413;SDS011;4244;48.684;9.028;2023-11-21T04:53:52;1.60;;;1.00;;
8413;SDS011;4244;48.684;9.028;2023-11-21T04:56:17;1.40;;;1.30;;
8413;SDS011;4244;48.684;9.028;2023-11-21T04:58:43;1.60;;;0.93;;
8413;SDS011;4244;48.684;9.028;2023-11-21T05:01:09;2.20;;;1.53;;
8413;SDS011;4244;48.684;9.028;2023-11-21T05:03:35;1.67;;;1.13;;
8413;SDS011;4244;48.684;9.028;2023-11-21T05:06:00;1.20;;;0.90;;
8413;SDS011;4244;48.684;9.028;2023-11-21T05:08:26;1.97;;;0.80;;
8413;SDS011;4244;48.684;9.028;2023-11-21T05:10:52;1.73;;;0.80;;
8413;SDS011;4244;48.684;9.028;2023-11-21T05:13:18;1.60;;;1.20;;
8413;SDS011;4244;48.684;9.028;2023-11-21T05:15:45;2.87;;;1.30;;
8413;SDS011;4244;48.684;9.028;2023-11-21T05:18:10;4.13;;;1.20;;
8413;SDS011;4244;48.684;9.028;2023-11-21T05:20:38;3.60;;;1.10;;
8413;SDS011;4244;48.684;9.028;2023-11-21T05:23:04;1.80;;;1.40;;
8413;SDS011;4244;48.684;9.028;2023-11-21T05:25:30;1.33;;;1.10;;
8413;SDS011;4244;48.684;9.028;2023-11-21T05:27:55;2.47;;;1.40;;
8413;SDS011;4244;48.684;9.028;2023-11-21T05:30:21;4.23;;;1.20;;
8413;SDS011;4244;48.684;9.028;2023-11-21T05:32:47;1.50;;;1.17;;
8413;SDS011;4244;48.684;9.028;2023-11-21T05:35:14;2.07;;;1.40;;
8413;SDS011;4244;48.684;9.028;2023-11-21T05:37:43;1.50;;;1.37;;
8413;SDS011;4244;48.684;9.028;2023-11-21T05:40:09;2.50;;;1.50;;
8413;SDS011;4244;48.684;9.028;2023-11-21T05:42:35;3.63;;;1.60;;
8413;SDS011;4244;48.684;9.028;2023-11-21T05:45:01;2.30;;;1.43;;
8413;SDS011;4244;48.684;9.028;2023-11-21T05:47:45;2.40;;;1.27;;
8413;SDS011;4244;48.684;9.028;2023-11-21T05:50:12;1.60;;;1.30;;
8413;SDS011;4244;48.684;9.028;2023-11-21T05:52:43;1.97;;;1.27;;
8413;SDS011;4244;48.684;9.028;2023-11-21T05:55:09;1.90;;;1.20;;
8413;SDS011;4244;48.684;9.028;2023-11-21T05:57:36;2.13;;;1.57;;
8413;SDS011;4244;48.684;9.028;2023-11-21T06:00:05;1.57;;;1.43;;
8413;SDS011;4244;48.684;9.028;2023-11-21T06:02:45;1.67;;;1.40;;
8413;SDS011;4244;48.684;9.028;2023-11-21T06:05:12;2.63;;;1.70;;
8413;SDS011;4244;48.684;9.028;2023-11-21T06:07:37;1.87;;;1.47;;
8413;SDS011;4244;48.684;9.028;2023-11-21T06:10:04;2.17;;;1.60;;
8413;SDS011;4244;48.684;9.028;2023-11-21T06:12:35;2.10;;;1.73;;
8413;SDS011;4244;48.684;9.028;2023-11-21T06:15:04;2.07;;;1.87;;
8413;SDS011;4244;48.684;9.028;2023-11-21T06:17:31;3.13;;;1.87;;
8413;SDS011;4244;48.684;9.028;2023-11-21T06:19:56;3.07;;;2.07;;
8413;SDS011;4244;48.684;9.028;2023-11-21T06:22:22;3.10;;;1.60;;
8413;SDS011;4244;48.684;9.028;2023-11-21T06:24:48;2.40;;;1.67;;
8413;SDS011;4244;48.684;9.028;2023-11-21T06:27:13;2.60;;;1.60;;
8413;SDS011;4244;48.684;9.028;2023-11-21T06:29:39;4.53;;;1.80;;
8413;SDS011;4244;48.684;9.028;2023-11-21T06:32:07;4.37;;;1.70;;
8413;SDS011;4244;48.684;9.028;2023-11-21T06:34:33;4.03;;;2.23;;
8413;SDS011;4244;48.684;9.028;2023-11-21T06:36:59;2.10;;;1.87;;
8413;SDS011;4244;48.684;9.028;2023-11-21T06:39:24;2.90;;;2.10;;
8413;SDS011;4244;48.684;9.028;2023-11-21T06:41:50;1.97;;;1.77;;
8413;SDS011;4244;48.684;9.028;2023-11-21T06:44:15;3.83;;;2.00;;
8413;SDS011;4244;48.684;9.028;2023-11-21T06:46:41;2.50;;;1.77;;
8413;SDS011;4244;48.684;9.028;2023-11-21T06:49:07;1.83;;;1.73;;
8413;SDS011;4244;48.684;9.028;2023-11-21T06:51:33;3.37;;;2.37;;
8413;SDS011;4244;48.684;9.028;2023-11-21T06:53:59;2.03;;;1.77;;
8413;SDS011;4244;48.684;9.028;2023-11-21T06:56:25;2.10;;;1.87;;
8413;SDS011;4244;48.684;9.028;2023-11-21T06:58:50;1.60;;;1.40;;
8413;SDS011;4244;48.684;9.028;2023-11-21T07:01:18;2.13;;;1.93;;
8413;SDS011;4244;48.684;9.028;2023-11-21T07:03:44;2.13;;;1.93;;
8413;SDS011;4244;48.684;9.028;2023-11-21T07:06:10;2.27;;;2.07;;
8413;SDS011;4244;48.684;9.028;2023-11-21T07:08:36;3.33;;;2.00;;
8413;SDS011;4244;48.684;9.028;2023-11-21T07:11:02;1.77;;;1.67;;
8413;SDS011;4244;48.684;9.028;2023-11-21T07:13:29;2.63;;;1.70;;
8413;SDS011;4244;48.684;9.028;2023-11-21T07:15:55;2.17;;;1.80;;
8413;SDS011;4244;48.684;9.028;2023-11-21T07:18:21;2.63;;;1.70;;
8413;SDS011;4244;48.684;9.028;2023-11-21T07:20:46;5.80;;;1.90;;
8413;SDS011;4244;48.684;9.028;2023-11-21T07:23:12;2.40;;;2.20;;
8413;SDS011;4244;48.684;9.028;2023-11-21T07:25:37;4.10;;;2.20;;
8413;SDS011;4244;48.684;9.028;2023-11-21T07:28:03;2.20;;;1.80;;
8413;SDS011;4244;48.684;9.028;2023-11-21T07:30:30;2.90;;;1.80;;
8413;SDS011;4244;48.684;9.028;2023-11-21T07:32:56;3.90;;;2.30;;
8413;SDS011;4244;48.684;9.028;2023-11-21T07:35:21;2.57;;;2.20;;
8413;SDS011;4244;48.684;9.028;2023-11-21T07:37:47;3.70;;;2.63;;
8413;SDS011;4244;48.684;9.028;2023-11-21T07:40:13;4.53;;;2.30;;
8413;SDS011;4244;48.684;9.028;2023-11-21T07:42:39;2.80;;;1.70;;
8413;SDS011;4244;48.684;9.028;2023-11-21T07:45:07;2.57;;;2.37;;
8413;SDS011;4244;48.684;9.028;2023-11-21T07:47:33;2.43;;;2.00;;
8413;SDS011;4244;48.684;9.028;2023-11-21T07:49:59;4.57;;;1.90;;
8413;SDS011;4244;48.684;9.028;2023-11-21T07:52:27;2.60;;;2.00;;
8413;SDS011;4244;48.684;9.028;2023-11-21T07:54:53;4.13;;;2.07;;
8413;SDS011;4244;48.684;9.028;2023-11-21T07:57:18;3.07;;;2.00;;
8413;SDS011;4244;48.684;9.028;2023-11-21T07:59:44;1.77;;;1.63;;
8413;SDS011;4244;48.684;9.028;2023-11-21T08:02:09;2.67;;;1.90;;
8413;SDS011;4244;48.684;9.028;2023-11-21T08:04:35;2.50;;;2.30;;
8413;SDS011;4244;48.684;9.028;2023-11-21T08:07:01;2.13;;;1.60;;
8413;SDS011;4244;48.684;9.028;2023-11-21T08:09:27;2.57;;;2.30;;
8413;SDS011;4244;48.684;9.028;2023-11-21T08:11:52;6.30;;;3.20;;
8413;SDS011;4244;48.684;9.028;2023-11-21T08:14:19;2.57;;;2.13;;
8413;SDS011;4244;48.684;9.028;2023-11-21T08:16:45;2.47;;;2.00;;
8413;SDS011;4244;48.684;9.028;2023-11-21T08:19:11;1.50;;;1.30;;
8413;SDS011;4244;48.684;9.028;2023-11-21T08:21:36;1.93;;;1.20;;
8413;SDS011;4244;48.684;9.028;2023-11-21T08:24:06;1.80;;;1.40;;
8413;SDS011;4244;48.684;9.028;2023-11-21T08:26:35;1.63;;;1.30;;
8413;SDS011;4244;48.684;9.028;2023-11-21T08:29:01;2.13;;;1.40;;
8413;SDS011;4244;48.684;9.028;2023-11-21T08:31:27;2.77;;;1.63;;
8413;SDS011;4244;48.684;9.028;2023-11-21T08:33:53;2.63;;;1.40;;
8413;SDS011;4244;48.684;9.028;2023-11-21T08:36:20;2.93;;;1.60;;
8413;SDS011;4244;48.684;9.028;2023-11-21T08:38:50;2.40;;;1.50;;
8413;SDS011;4244;48.684;9.028;2023-11-21T08:41:17;1.90;;;1.63;;
8413;SDS011;4244;48.684;9.028;2023-11-21T08:43:42;1.80;;;1.27;;
8413;SDS011;4244;48.684;9.028;2023-11-21T08:46:08;2.07;;;1.37;;
8413;SDS011;4244;48.684;9.028;2023-11-21T08:48:37;1.50;;;1.20;;
8413;SDS011;4244;48.684;9.028;2023-11-21T08:51:03;2.33;;;1.17;;
8413;SDS011;4244;48.684;9.028;2023-11-21T08:53:29;1.40;;;1.30;;
8413;SDS011;4244;48.684;9.028;2023-11-21T08:55:56;1.60;;;1.30;;
8413;SDS011;4244;48.684;9.028;2023-11-21T08:58:22;1.67;;;1.50;;
8413;SDS011;4244;48.684;9.028;2023-11-21T09:00:49;3.53;;;1.10;;
8413;SDS011;4244;48.684;9.028;2023-11-21T09:03:14;7.10;;;1.37;;
8413;SDS011;4244;48.684;9.028;2023-11-21T09:05:40;3.33;;;1.30;;
8413;SDS011;4244;48.684;9.028;2023-11-21T09:08:05;2.23;;;1.20;;
8413;SDS011;4244;48.684;9.028;2023-11-21T09:10:32;4.93;;;1.77;;
8413;SDS011;4244;48.684;9.028;2023-11-21T09:13:00;3.07;;;1.40;;
8413;SDS011;4244;48.684;9.028;2023-11-21T09:15:26;2.50;;;1.00;;
8413;SDS011;4244;48.684;9.028;2023-11-21T09:17:52;1.70;;;1.37;;
8413;SDS011;4244;48.684;9.028;2023-11-21T09:20:18;2.67;;;1.53;;
8413;SDS011;4244;48.684;9.028;2023-11-21T09:22:47;3.30;;;1.70;;
8413;SDS011;4244;48.684;9.028;2023-11-21T09:25:13;3.90;;;1.60;;
8413;SDS011;4244;48.684;9.028;2023-11-21T09:27:39;4.93;;;1.60;;
8413;SDS011;4244;48.684;9.028;2023-11-21T09:30:05;2.50;;;1.20;;
8413;SDS011;4244;48.684;9.028;2023-11-21T09:32:34;1.57;;;1.40;;
8413;SDS011;4244;48.684;9.028;2023-11-21T09:35:02;1.70;;;1.33;;
8413;SDS011;4244;48.684;9.028;2023-11-21T09:37:28;2.80;;;1.17;;
8413;SDS011;4244;48.684;9.028;2023-11-21T09:39:56;3.00;;;1.30;;
8413;SDS011;4244;48.684;9.028;2023-11-21T09:45:03;2.47;;;1.60;;
8413;SDS011;4244;48.684;9.028;2023-11-21T09:47:39;1.33;;;1.20;;
8413;SDS011;4244;48.684;9.028;2023-11-21T09:50:05;1.80;;;1.17;;
8413;SDS011;4244;48.684;9.028;2023-11-21T09:52:45;1.63;;;1.10;;
8413;SDS011;4244;48.684;9.028;2023-11-21T09:55:17;3.30;;;1.70;;
8413;SDS011;4244;48.684;9.028;2023-11-21T09:57:46;2.70;;;1.33;;
8413;SDS011;4244;48.684;9.028;2023-11-21T10:00:13;1.40;;;1.10;;
8413;SDS011;4244;48.684;9.028;2023-11-21T10:02:42;2.50;;;1.40;;
8413;SDS011;4244;48.684;9.028;2023-11-21T10:05:08;1.77;;;1.33;;
8413;SDS011;4244;48.684;9.028;2023-11-21T10:07:38;4.10;;;1.37;;
8413;SDS011;4244;48.684;9.028;2023-11-21T10:10:06;1.40;;;1.20;;
8413;SDS011;4244;48.684;9.028;2023-11-21T10:12:33;1.60;;;1.00;;
8413;SDS011;4244;48.684;9.028;2023-11-21T10:14:58;1.30;;;1.03;;
8413;SDS011;4244;48.684;9.028;2023-11-21T10:17:25;1.93;;;1.60;;
8413;SDS011;4244;48.684;9.028;2023-11-21T10:19:55;2.23;;;1.67;;
8413;SDS011;4244;48.684;9.028;2023-11-21T10:22:22;1.77;;;1.40;;
8413;SDS011;4244;48.684;9.028;2023-11-21T10:24:48;1.80;;;1.60;;
8413;SDS011;4244;48.684;9.028;2023-11-21T10:27:14;1.90;;;1.40;;
8413;SDS011;4244;48.684;9.028;2023-11-21T10:29:39;2.23;;;1.70;;
8413;SDS011;4244;48.684;9.028;2023-11-21T10:32:06;2.80;;;1.47;;
8413;SDS011;4244;48.684;9.028;2023-11-21T10:34:32;2.20;;;1.40;;
8413;SDS011;4244;48.684;9.028;2023-11-21T10:36:59;3.60;;;1.60;;
8413;SDS011;4244;48.684;9.028;2023-11-21T10:39:36;2.47;;;1.93;;
8413;SDS011;4244;48.684;9.028;2023-11-21T10:42:01;2.00;;;1.80;;
8413;SDS011;4244;48.684;9.028;2023-11-21T10:44:27;3.03;;;1.80;;
8413;SDS011;4244;48.684;9.028;2023-11-21T10:46:53;2.57;;;2.00;;
8413;SDS011;4244;48.684;9.028;2023-11-21T10:49:22;1.70;;;1.60;;
8413;SDS011;4244;48.684;9.028;2023-11-21T10:51:50;2.30;;;1.80;;
8413;SDS011;4244;48.684;9.028;2023-11-21T10:54:19;2.33;;;1.83;;
8413;SDS011;4244;48.684;9.028;2023-11-21T10:56:45;2.00;;;1.80;;
8413;SDS011;4244;48.684;9.028;2023-11-21T10:59:18;3.00;;;2.13;;
8413;SDS011;4244;48.684;9.028;2023-11-21T11:01:46;3.20;;;2.30;;
8413;SDS011;4244;48.684;9.028;2023-11-21T11:04:12;3.23;;;2.03;;
8413;SDS011;4244;48.684;9.028;2023-11-21T11:06:51;5.00;;;1.83;;
8413;SDS011;4244;48.684;9.028;2023-11-21T11:09:23;2.50;;;1.90;;
8413;SDS011;4244;48.684;9.028;2023-11-21T11:11:51;2.43;;;2.10;;
8413;SDS011;4244;48.684;9.028;2023-11-21T11:14:17;4.73;;;2.90;;
8413;SDS011;4244;48.684;9.028;2023-11-21T11:16:44;2.33;;;1.93;;
8413;SDS011;4244;48.684;9.028;2023-11-21T11:19:10;2.30;;;2.10;;
8413;SDS011;4244;48.684;9.028;2023-11-21T11:22:02;2.57;;;2.37;;
8413;SDS011;4244;48.684;9.028;2023-11-21T11:25:03;3.17;;;2.87;;
8413;SDS011;4244;48.684;9.028;2023-11-21T11:31:14;3.10;;;2.77;;
8413;SDS011;4244;48.684;9.028;2023-11-21T11:36:00;5.37;;;2.80;;
8413;SDS011;4244;48.684;9.028;2023-11-21T11:38:30;3.53;;;3.07;;
8413;SDS011;4244;48.684;9.028;2023-11-21T11:41:00;3.33;;;2.97;;
8413;SDS011;4244;48.684;9.028;2023-11-21T11:43:28;3.27;;;2.97;;
8413;SDS011;4244;48.684;9.028;2023-11-21T11:45:56;5.37;;;3.40;;
8413;SDS011;4244;48.684;9.028;2023-11-21T11:48:34;4.30;;;3.77;;
8413;SDS011;4244;48.684;9.028;2023-11-21T11:53:58;2.30;;;2.10;;
8413;SDS011;4244;48.684;9.028;2023-11-21T11:56:26;2.33;;;2.13;;
8413;SDS011;4244;48.684;9.028;2023-11-21T11:58:56;2.50;;;2.30;;
8413;SDS011;4244;48.684;9.028;2023-11-21T12:01:27;2.17;;;1.97;;
8413;SDS011;4244;48.684;9.028;2023-11-21T12:06:47;3.83;;;3.53;;
8413;SDS011;4244;48.684;9.028;2023-11-21T12:09:19;3.93;;;3.63;;
8413;SDS011;4244;48.684;9.028;2023-11-21T12:11:46;2.93;;;2.70;;
8413;SDS011;4244;48.684;9.028;2023-11-21T12:14:13;4.73;;;2.67;;
8413;SDS011;4244;48.684;9.028;2023-11-21T12:16:39;2.30;;;2.10;;
8413;SDS011;4244;48.684;9.028;2023-11-21T12:19:05;1.93;;;1.53;;
8413;SDS011;4244;48.684;9.028;2023-11-21T12:21:32;2.10;;;1.90;;
8413;SDS011;4244;48.684;9.028;2023-11-21T12:23:58;2.30;;;2.10;;
8413;SDS011;4244;48.684;9.028;2023-11-21T12:26:24;2.13;;;1.93;;
8413;SDS011;4244;48.684;9.028;2023-11-21T12:28:53;2.30;;;2.10;;
8413;SDS011;4244;48.684;9.028;2023-11-21T12:31:22;1.97;;;1.60;;
8413;SDS011;4244;48.684;9.028;2023-11-21T12:33:50;4.27;;;3.07;;
8413;SDS011;4244;48.684;9.028;2023-11-21T12:36:16;3.30;;;3.00;;
8413;SDS011;4244;48.684;9.028;2023-11-21T12:38:42;2.50;;;2.30;;
8413;SDS011;4244;48.684;9.028;2023-11-21T12:41:11;2.90;;;2.60;;
8413;SDS011;4244;48.684;9.028;2023-11-21T12:43:37;2.30;;;2.10;;
8413;SDS011;4244;48.684;9.028;2023-11-21T12:46:10;2.30;;;2.00;;
8413;SDS011;4244;48.684;9.028;2023-11-21T12:48:39;2.70;;;2.50;;
8413;SDS011;4244;48.684;9.028;2023-11-21T12:51:10;2.20;;;1.80;;
8413;SDS011;4244;48.684;9.028;2023-11-21T12:53:37;2.13;;;1.87;;
8413;SDS011;4244;48.684;9.028;2023-11-21T12:56:09;1.97;;;1.30;;
8413;SDS011;4244;48.684;9.028;2023-11-21T12:58:36;1.53;;;1.30;;
8413;SDS011;4244;48.684;9.028;2023-11-21T13:01:04;2.70;;;1.20;;
8413;SDS011;4244;48.684;9.028;2023-11-21T13:03:30;1.50;;;1.40;;
8413;SDS011;4244;48.684;9.028;2023-11-21T13:05:57;2.00;;;1.67;;
8413;SDS011;4244;48.684;9.028;2023-11-21T13:08:24;1.40;;;1.30;;
8413;SDS011;4244;48.684;9.028;2023-11-21T13:10:54;2.17;;;1.70;;
8413;SDS011;4244;48.684;9.028;2023-11-21T13:13:21;1.97;;;1.80;;
8413;SDS011;4244;48.684;9.028;2023-11-21T13:15:48;2.07;;;1.80;;
8413;SDS011;4244;48.684;9.028;2023-11-21T13:18:15;2.27;;;2.07;;
8413;SDS011;4244;48.684;9.028;2023-11-21T13:20:41;2.97;;;2.67;;
8413;SDS011;4244;48.684;9.028;2023-11-21T13:23:08;2.17;;;1.97;;
8413;SDS011;4244;48.684;9.028;2023-11-21T13:25:37;2.30;;;2.10;;
8413;SDS011;4244;48.684;9.028;2023-11-21T13:28:05;2.17;;;2.00;;
8413;SDS011;4244;48.684;9.028;2023-11-21T13:30:31;2.07;;;1.87;;
8413;SDS011;4244;48.684;9.028;2023-11-21T13:33:03;2.10;;;2.00;;
8413;SDS011;4244;48.684;9.028;2023-11-21T13:35:36;2.90;;;2.67;;
8413;SDS011;4244;48.684;9.028;2023-11-21T13:38:07;3.80;;;2.90;;
8413;SDS011;4244;48.684;9.028;2023-11-21T13:40:34;3.50;;;3.10;;
8413;SDS011;4244;48.684;9.028;2023-11-21T13:43:11;3.10;;;2.90;;
8413;SDS011;4244;48.684;9.028;2023-11-21T13:45:38;2.77;;;2.20;;
8413;SDS011;4244;48.684;9.028;2023-11-21T13:48:10;2.03;;;1.83;;
8413;SDS011;4244;48.684;9.028;2023-11-21T13:50:39;1.80;;;1.70;;
8413;SDS011;4244;48.684;9.028;2023-11-21T13:53:11;2.37;;;1.40;;
8413;SDS011;4244;48.684;9.028;2023-11-21T13:55:47;1.83;;;1.63;;
8413;SDS011;4244;48.684;9.028;2023-11-21T13:58:14;1.50;;;1.10;;
8413;SDS011;4244;48.684;9.028;2023-11-21T14:00:48;1.47;;;1.13;;
8413;SDS011;4244;48.684;9.028;2023-11-21T14:03:24;1.30;;;0.90;;
8413;SDS011;4244;48.684;9.028;2023-11-21T14:06:03;1.00;;;0.70;;
8413;SDS011;4244;48.684;9.028;2023-11-21T14:08:33;1.87;;;1.40;;
8413;SDS011;4244;48.684;9.028;2023-11-21T14:10:59;1.70;;;1.10;;
8413;SDS011;4244;48.684;9.028;2023-11-21T14:13:26;1.80;;;1.30;;
8413;SDS011;4244;48.684;9.028;2023-11-21T14:15:52;1.17;;;0.90;;
8413;SDS011;4244;48.684;9.028;2023-11-21T14:18:26;1.40;;;1.03;;
8413;SDS011;4244;48.684;9.028;2023-11-21T14:21:06;2.20;;;1.40;;
8413;SDS011;4244;48.684;9.028;2023-11-21T14:23:33;1.60;;;1.20;;
8413;SDS011;4244;48.684;9.028;2023-11-21T14:26:01;1.60;;;1.40;;
8413;SDS011;4244;48.684;9.028;2023-11-21T14:28:26;1.40;;;1.10;;
8413;SDS011;4244;48.684;9.028;2023-11-21T14:30:52;1.83;;;1.30;;
8413;SDS011;4244;48.684;9.028;2023-11-21T14:33:18;1.77;;;1.10;;
8413;SDS011;4244;48.684;9.028;2023-11-21T14:35:43;1.33;;;1.17;;
8413;SDS011;4244;48.684;9.028;2023-11-21T14:38:09;2.43;;;1.70;;
8413;SDS011;4244;48.684;9.028;2023-11-21T14:40:35;2.47;;;1.80;;
8413;SDS011;4244;48.684;9.028;2023-11-21T14:43:04;2.60;;;2.20;;
8413;SDS011;4244;48.684;9.028;2023-11-21T14:45:31;3.20;;;1.90;;
8413;SDS011;4244;48.684;9.028;2023-11-21T14:47:57;1.83;;;1.60;;
8413;SDS011;4244;48.684;9.028;2023-11-21T14:50:29;3.47;;;1.93;;
8413;SDS011;4244;48.684;9.028;2023-11-21T14:53:09;2.53;;;2.33;;
8413;SDS011;4244;48.684;9.028;2023-11-21T14:55:39;2.37;;;2.17;;
8413;SDS011;4244;48.684;9.028;2023-11-21T14:58:21;3.70;;;2.17;;
8413;SDS011;4244;48.684;9.028;2023-11-21T15:00:57;2.67;;;2.37;;
8413;SDS011;4244;48.684;9.028;2023-11-21T15:03:26;2.30;;;2.10;;
8413;SDS011;4244;48.684;9.028;2023-11-21T15:06:08;3.27;;;2.40;;
8413;SDS011;4244;48.684;9.028;2023-11-21T15:08:52;2.67;;;2.23;;
8413;SDS011;4244;48.684;9.028;2023-11-21T15:11:34;3.33;;;2.60;;
8413;SDS011;4244;48.684;9.028;2023-11-21T15:14:02;2.67;;;2.43;;
8413;SDS011;4244;48.684;9.028;2023-11-21T15:16:32;2.83;;;2.63;;
8413;SDS011;4244;48.684;9.028;2023-11-21T15:18:59;2.80;;;2.60;;
8413;SDS011;4244;48.684;9.028;2023-11-21T15:21:25;2.37;;;2.17;;
8413;SDS011;4244;48.684;9.028;2023-11-21T15:23:50;3.10;;;2.40;;
8413;SDS011;4244;48.684;9.028;2023-11-21T15:26:16;3.33;;;3.03;;
8413;SDS011;4244;48.684;9.028;2023-11-21T15:28:42;4.17;;;3.63;;
8413;SDS011;4244;48.684;9.028;2023-11-21T15:31:07;4.50;;;4.10;;